Airfield :
LOGIN :

Register | Disclaimer

   EN    FR    IT 

 










Legend :    VFR   Marginal VFR   IFR   Intensive IFR   Very Intensive IFR
Visi :
Ceiling :
>= 8 km
>= 3000ft
5 to 8 km
1000 to 3000 ft
1500m to 5 km
500 to 1000 ft
800 to 1500m
200 to 500 ft
< 800m
< 200 ft
Symbols :   Thunderstorms  Fog  Heavy snow  Heavy precipitations  Wind > 20 kt
SIGMETs :     Misc.  Thunderstorms  Icing  Turbulence  Mountain Waves  Volcanic Ashes






- Airport Elevation : 256 ft
- IATA code : CFR


LFRK - Caen

CURRENT METAR :
  • 231800Z AUTO 36006KT 330V050 9999 ///CB 16/10 Q1017 BECMG BKN030

EXPIRED METARs :
  • 231730Z AUTO 35006KT 9999 SCT023/// BKN076/// OVC100/// ///CB 16/10 Q1017 BECMG BKN030
  • 231700Z AUTO 36007KT 320V050 9999 SCT021 OVC100 17/11 Q1016 TEMPO 3000 SHRA BKN012 BKN020CB
  • 231630Z AUTO 34007KT 300V010 9999 SCT017 OVC094 17/12 Q1016 TEMPO 3000 SHRA BKN012 BKN020CB
  • 231600Z AUTO 34006KT 310V030 9999 BKN016 OVC072 16/12 Q1016 TEMPO 3000 SHRA BKN012 BKN020CB
  • 231530Z AUTO 32008KT 9999 FEW014/// BKN072/// BKN086/// ///TCU 16/12 Q1016 TEMPO 3000 SHRA BKN012 BKN020CB
  • 231500Z AUTO 32009KT 290V350 9999 FEW017/// OVC068/// //////CB 16/12 Q1016 TEMPO VRB15G25KT 3000 SHRA BKN012 BKN020CB
  • 231430Z AUTO 32010KT 290V350 9999 FEW015 SCT034 BKN044 17/12 Q1016 TEMPO VRB15G25KT 3000 SHRA BKN012 BKN020CB
  • 231400Z AUTO 31011KT 9999 SCT028/// BKN035/// BKN050/// ///TCU 16/12 Q1016 TEMPO VRB15G25KT 1200 TSRAGS BKN012 BKN020CB
  • 231330Z AUTO 31010KT 9999 SCT027/// BKN033/// OVC082/// ///TCU 18/12 Q1016 TEMPO VRB15G25KT 1200 TSRAGS BKN012 BKN020CB

TAF TAF LFRK
Valid from the 23 at 15:00 until the 24 at 00:00 UTC


231400Z 2315/2324 33008KT 9999 BKN030
TEMPO 2315/2318 3000 SHRA BKN012 BKN020CB
PROB30
TEMPO 2315/2316 VRB15G25KT 1200 TSRAGS
Met : +33 2 31 26 68 11



MET'MAP, your aeronautical weather chart ! - Copyright ORBIFLY December 2007 - Disclaimer

ORBIFLY MET'MAP TEAM :

Programming & Development : Alexandra Zaïnal
Original concept : Baudouin d'Aumeries
Technical & hardware support : Manuel Goepfert
Assistance : Marc-Olivier Méhu




SOURCES & CREDITS :

   NOAA